sensor_id;sensor_type;location;lat;lon;timestamp;P1;durP1;ratioP1;P2;durP2;ratioP2
77432;SDS011;66752;48.576;8.876;2023-05-10T00:01:53;3.08;;;1.15;;
77432;SDS011;66752;48.576;8.876;2023-05-10T00:04:19;2.17;;;0.75;;
77432;SDS011;66752;48.576;8.876;2023-05-10T00:06:54;1.75;;;0.60;;
77432;SDS011;66752;48.576;8.876;2023-05-10T00:09:21;3.35;;;0.77;;
77432;SDS011;66752;48.576;8.876;2023-05-10T00:11:46;2.15;;;0.90;;
77432;SDS011;66752;48.576;8.876;2023-05-10T00:14:12;2.40;;;0.77;;
77432;SDS011;66752;48.576;8.876;2023-05-10T00:16:38;2.58;;;0.60;;
77432;SDS011;66752;48.576;8.876;2023-05-10T00:19:04;1.35;;;0.55;;
77432;SDS011;66752;48.576;8.876;2023-05-10T00:21:30;1.75;;;0.70;;
77432;SDS011;66752;48.576;8.876;2023-05-10T00:23:58;1.42;;;0.57;;
77432;SDS011;66752;48.576;8.876;2023-05-10T00:26:24;2.80;;;0.73;;
77432;SDS011;66752;48.576;8.876;2023-05-10T00:28:53;3.28;;;0.63;;
77432;SDS011;66752;48.576;8.876;2023-05-10T00:31:19;1.05;;;0.52;;
77432;SDS011;66752;48.576;8.876;2023-05-10T00:33:45;3.72;;;0.80;;
77432;SDS011;66752;48.576;8.876;2023-05-10T00:36:11;2.42;;;0.65;;
77432;SDS011;66752;48.576;8.876;2023-05-10T00:38:37;1.50;;;0.60;;
77432;SDS011;66752;48.576;8.876;2023-05-10T00:41:03;1.08;;;0.43;;
77432;SDS011;66752;48.576;8.876;2023-05-10T00:43:32;1.70;;;0.50;;
77432;SDS011;66752;48.576;8.876;2023-05-10T00:46:01;2.20;;;0.70;;
77432;SDS011;66752;48.576;8.876;2023-05-10T00:48:30;1.15;;;0.50;;
77432;SDS011;66752;48.576;8.876;2023-05-10T00:50:56;5.88;;;0.80;;
77432;SDS011;66752;48.576;8.876;2023-05-10T00:53:23;1.23;;;0.50;;
77432;SDS011;66752;48.576;8.876;2023-05-10T00:55:50;2.05;;;0.70;;
77432;SDS011;66752;48.576;8.876;2023-05-10T00:58:16;1.92;;;0.50;;
77432;SDS011;66752;48.576;8.876;2023-05-10T01:00:45;2.70;;;0.77;;
77432;SDS011;66752;48.576;8.876;2023-05-10T01:03:13;1.17;;;0.45;;
77432;SDS011;66752;48.576;8.876;2023-05-10T01:05:39;1.25;;;0.50;;
77432;SDS011;66752;48.576;8.876;2023-05-10T01:08:06;1.17;;;0.70;;
77432;SDS011;66752;48.576;8.876;2023-05-10T01:10:33;1.60;;;0.50;;
77432;SDS011;66752;48.576;8.876;2023-05-10T01:12:59;1.88;;;0.50;;
77432;SDS011;66752;48.576;8.876;2023-05-10T01:15:25;1.27;;;0.50;;
77432;SDS011;66752;48.576;8.876;2023-05-10T01:17:51;2.00;;;0.65;;
77432;SDS011;66752;48.576;8.876;2023-05-10T01:20:18;1.67;;;0.47;;
77432;SDS011;66752;48.576;8.876;2023-05-10T01:28:28;0.63;;;0.40;;
77432;SDS011;66752;48.576;8.876;2023-05-10T01:31:06;1.90;;;0.50;;
77432;SDS011;66752;48.576;8.876;2023-05-10T01:38:42;2.70;;;0.80;;
77432;SDS011;66752;48.576;8.876;2023-05-10T01:43:39;1.95;;;0.60;;
77432;SDS011;66752;48.576;8.876;2023-05-10T01:46:09;3.15;;;0.60;;
77432;SDS011;66752;48.576;8.876;2023-05-10T01:57:43;1.38;;;0.50;;
77432;SDS011;66752;48.576;8.876;2023-05-10T02:03:13;2.28;;;0.63;;
77432;SDS011;66752;48.576;8.876;2023-05-10T02:05:40;1.30;;;0.60;;
77432;SDS011;66752;48.576;8.876;2023-05-10T02:08:15;1.85;;;0.70;;
77432;SDS011;66752;48.576;8.876;2023-05-10T02:10:42;2.55;;;0.80;;
77432;SDS011;66752;48.576;8.876;2023-05-10T02:13:08;2.35;;;0.70;;
77432;SDS011;66752;48.576;8.876;2023-05-10T02:15:35;1.90;;;0.70;;
77432;SDS011;66752;48.576;8.876;2023-05-10T02:18:02;2.13;;;0.63;;
77432;SDS011;66752;48.576;8.876;2023-05-10T02:20:28;3.30;;;0.80;;
77432;SDS011;66752;48.576;8.876;2023-05-10T02:25:58;2.15;;;0.80;;
77432;SDS011;66752;48.576;8.876;2023-05-10T02:28:26;1.77;;;0.73;;
77432;SDS011;66752;48.576;8.876;2023-05-10T02:33:57;3.25;;;0.88;;
77432;SDS011;66752;48.576;8.876;2023-05-10T02:36:24;2.38;;;0.80;;
77432;SDS011;66752;48.576;8.876;2023-05-10T02:41:56;2.97;;;0.90;;
77432;SDS011;66752;48.576;8.876;2023-05-10T02:47:38;4.43;;;1.35;;
77432;SDS011;66752;48.576;8.876;2023-05-10T03:05:22;4.63;;;1.40;;
77432;SDS011;66752;48.576;8.876;2023-05-10T03:07:48;4.45;;;1.48;;
77432;SDS011;66752;48.576;8.876;2023-05-10T03:10:16;5.57;;;1.88;;
77432;SDS011;66752;48.576;8.876;2023-05-10T03:21:07;2.95;;;1.00;;
77432;SDS011;66752;48.576;8.876;2023-05-10T03:23:38;7.20;;;1.75;;
77432;SDS011;66752;48.576;8.876;2023-05-10T03:29:10;2.58;;;0.82;;
77432;SDS011;66752;48.576;8.876;2023-05-10T03:31:37;3.53;;;0.90;;
77432;SDS011;66752;48.576;8.876;2023-05-10T03:34:03;3.38;;;1.13;;
77432;SDS011;66752;48.576;8.876;2023-05-10T03:36:30;3.42;;;1.00;;
77432;SDS011;66752;48.576;8.876;2023-05-10T03:38:56;2.80;;;0.90;;
77432;SDS011;66752;48.576;8.876;2023-05-10T03:41:21;3.63;;;0.80;;
77432;SDS011;66752;48.576;8.876;2023-05-10T03:49:55;2.90;;;1.05;;
77432;SDS011;66752;48.576;8.876;2023-05-10T03:52:21;3.35;;;1.30;;
77432;SDS011;66752;48.576;8.876;2023-05-10T03:54:47;2.92;;;0.90;;
77432;SDS011;66752;48.576;8.876;2023-05-10T04:00:07;3.10;;;1.10;;
77432;SDS011;66752;48.576;8.876;2023-05-10T04:02:33;2.75;;;0.98;;
77432;SDS011;66752;48.576;8.876;2023-05-10T04:04:59;4.15;;;1.38;;
77432;SDS011;66752;48.576;8.876;2023-05-10T04:10:29;3.67;;;1.42;;
77432;SDS011;66752;48.576;8.876;2023-05-10T04:13:13;4.82;;;1.60;;
77432;SDS011;66752;48.576;8.876;2023-05-10T04:27:58;4.07;;;1.67;;
77432;SDS011;66752;48.576;8.876;2023-05-10T04:36:30;4.05;;;1.40;;
77432;SDS011;66752;48.576;8.876;2023-05-10T04:42:04;3.63;;;1.60;;
77432;SDS011;66752;48.576;8.876;2023-05-10T04:47:34;3.50;;;1.40;;
77432;SDS011;66752;48.576;8.876;2023-05-10T04:53:03;3.78;;;1.63;;
77432;SDS011;66752;48.576;8.876;2023-05-10T04:55:29;5.60;;;1.73;;
77432;SDS011;66752;48.576;8.876;2023-05-10T04:57:55;3.53;;;1.55;;
77432;SDS011;66752;48.576;8.876;2023-05-10T05:00:22;3.40;;;1.00;;
77432;SDS011;66752;48.576;8.876;2023-05-10T05:02:48;4.05;;;1.40;;
77432;SDS011;66752;48.576;8.876;2023-05-10T05:05:14;3.25;;;1.10;;
77432;SDS011;66752;48.576;8.876;2023-05-10T05:07:40;3.75;;;1.00;;
77432;SDS011;66752;48.576;8.876;2023-05-10T05:10:06;3.17;;;1.20;;
77432;SDS011;66752;48.576;8.876;2023-05-10T05:12:32;3.58;;;1.30;;
77432;SDS011;66752;48.576;8.876;2023-05-10T05:14:58;3.17;;;1.30;;
77432;SDS011;66752;48.576;8.876;2023-05-10T05:17:24;4.07;;;1.50;;
77432;SDS011;66752;48.576;8.876;2023-05-10T05:19:51;3.88;;;1.50;;
77432;SDS011;66752;48.576;8.876;2023-05-10T05:22:17;4.22;;;1.25;;
77432;SDS011;66752;48.576;8.876;2023-05-10T05:24:44;4.95;;;1.52;;
77432;SDS011;66752;48.576;8.876;2023-05-10T05:27:10;4.35;;;1.50;;
77432;SDS011;66752;48.576;8.876;2023-05-10T05:29:36;3.17;;;1.40;;
77432;SDS011;66752;48.576;8.876;2023-05-10T05:32:02;3.33;;;1.38;;
77432;SDS011;66752;48.576;8.876;2023-05-10T05:34:28;7.78;;;1.60;;
77432;SDS011;66752;48.576;8.876;2023-05-10T05:36:54;4.75;;;1.40;;
77432;SDS011;66752;48.576;8.876;2023-05-10T05:39:29;4.00;;;1.75;;
77432;SDS011;66752;48.576;8.876;2023-05-10T05:41:55;9.75;;;1.80;;
77432;SDS011;66752;48.576;8.876;2023-05-10T05:44:21;5.15;;;1.50;;
77432;SDS011;66752;48.576;8.876;2023-05-10T05:46:47;2.97;;;1.27;;
77432;SDS011;66752;48.576;8.876;2023-05-10T05:49:13;4.07;;;1.75;;
77432;SDS011;66752;48.576;8.876;2023-05-10T05:51:39;5.43;;;1.90;;
77432;SDS011;66752;48.576;8.876;2023-05-10T05:54:05;4.15;;;1.52;;
77432;SDS011;66752;48.576;8.876;2023-05-10T05:56:31;4.03;;;1.40;;
77432;SDS011;66752;48.576;8.876;2023-05-10T06:01:54;4.10;;;1.63;;
77432;SDS011;66752;48.576;8.876;2023-05-10T06:10:27;3.88;;;1.60;;
77432;SDS011;66752;48.576;8.876;2023-05-10T06:12:53;5.05;;;1.67;;
77432;SDS011;66752;48.576;8.876;2023-05-10T06:15:19;4.63;;;1.80;;
77432;SDS011;66752;48.576;8.876;2023-05-10T06:17:45;5.13;;;2.25;;
77432;SDS011;66752;48.576;8.876;2023-05-10T06:20:12;3.63;;;1.70;;
77432;SDS011;66752;48.576;8.876;2023-05-10T06:25:41;4.63;;;1.80;;
77432;SDS011;66752;48.576;8.876;2023-05-10T06:31:07;4.43;;;1.63;;
77432;SDS011;66752;48.576;8.876;2023-05-10T06:36:52;5.00;;;1.88;;
77432;SDS011;66752;48.576;8.876;2023-05-10T06:39:18;4.63;;;1.80;;
77432;SDS011;66752;48.576;8.876;2023-05-10T06:41:44;5.47;;;2.38;;
77432;SDS011;66752;48.576;8.876;2023-05-10T06:44:10;4.97;;;1.50;;
77432;SDS011;66752;48.576;8.876;2023-05-10T06:46:37;3.40;;;1.50;;
77432;SDS011;66752;48.576;8.876;2023-05-10T06:49:06;5.18;;;1.80;;
77432;SDS011;66752;48.576;8.876;2023-05-10T06:51:32;3.10;;;1.20;;
77432;SDS011;66752;48.576;8.876;2023-05-10T06:53:58;3.15;;;1.17;;
77432;SDS011;66752;48.576;8.876;2023-05-10T06:56:25;2.75;;;0.98;;
77432;SDS011;66752;48.576;8.876;2023-05-10T06:58:51;2.95;;;1.10;;
77432;SDS011;66752;48.576;8.876;2023-05-10T07:01:16;2.78;;;1.10;;
77432;SDS011;66752;48.576;8.876;2023-05-10T07:13:02;3.63;;;1.20;;
77432;SDS011;66752;48.576;8.876;2023-05-10T07:15:28;4.38;;;1.25;;
77432;SDS011;66752;48.576;8.876;2023-05-10T07:17:54;3.22;;;1.20;;
77432;SDS011;66752;48.576;8.876;2023-05-10T07:23:24;3.75;;;1.13;;
77432;SDS011;66752;48.576;8.876;2023-05-10T07:35:00;3.13;;;1.50;;
77432;SDS011;66752;48.576;8.876;2023-05-10T07:37:26;2.50;;;0.93;;
77432;SDS011;66752;48.576;8.876;2023-05-10T07:39:52;3.17;;;1.17;;
77432;SDS011;66752;48.576;8.876;2023-05-10T07:45:09;4.35;;;1.05;;
77432;SDS011;66752;48.576;8.876;2023-05-10T07:47:35;2.78;;;1.08;;
77432;SDS011;66752;48.576;8.876;2023-05-10T07:50:01;2.58;;;0.82;;
77432;SDS011;66752;48.576;8.876;2023-05-10T07:52:27;2.00;;;0.75;;
77432;SDS011;66752;48.576;8.876;2023-05-10T07:54:53;2.88;;;0.95;;
77432;SDS011;66752;48.576;8.876;2023-05-10T08:00:23;1.13;;;0.60;;
77432;SDS011;66752;48.576;8.876;2023-05-10T08:02:49;2.63;;;0.82;;
77432;SDS011;66752;48.576;8.876;2023-05-10T08:05:15;2.15;;;0.70;;
77432;SDS011;66752;48.576;8.876;2023-05-10T08:07:53;2.67;;;0.98;;
77432;SDS011;66752;48.576;8.876;2023-05-10T08:10:35;3.35;;;0.90;;
77432;SDS011;66752;48.576;8.876;2023-05-10T08:13:01;1.90;;;0.80;;
77432;SDS011;66752;48.576;8.876;2023-05-10T08:15:28;2.72;;;0.90;;
77432;SDS011;66752;48.576;8.876;2023-05-10T08:17:53;3.63;;;0.73;;
77432;SDS011;66752;48.576;8.876;2023-05-10T08:20:19;3.10;;;0.80;;
77432;SDS011;66752;48.576;8.876;2023-05-10T08:25:49;1.88;;;0.70;;
77432;SDS011;66752;48.576;8.876;2023-05-10T08:31:19;2.38;;;0.90;;
77432;SDS011;66752;48.576;8.876;2023-05-10T08:33:45;1.63;;;0.68;;
77432;SDS011;66752;48.576;8.876;2023-05-10T08:36:11;2.65;;;0.88;;
77432;SDS011;66752;48.576;8.876;2023-05-10T08:44:46;1.83;;;0.80;;
77432;SDS011;66752;48.576;8.876;2023-05-10T08:47:15;1.48;;;0.50;;
77432;SDS011;66752;48.576;8.876;2023-05-10T08:49:42;2.40;;;0.55;;
77432;SDS011;66752;48.576;8.876;2023-05-10T08:52:09;3.42;;;0.75;;
77432;SDS011;66752;48.576;8.876;2023-05-10T08:54:36;2.03;;;0.57;;
77432;SDS011;66752;48.576;8.876;2023-05-10T08:57:02;3.13;;;0.82;;
77432;SDS011;66752;48.576;8.876;2023-05-10T08:59:28;1.02;;;0.55;;
77432;SDS011;66752;48.576;8.876;2023-05-10T09:01:55;1.88;;;0.73;;
77432;SDS011;66752;48.576;8.876;2023-05-10T09:04:23;1.83;;;0.60;;
77432;SDS011;66752;48.576;8.876;2023-05-10T09:15:23;1.48;;;0.65;;
77432;SDS011;66752;48.576;8.876;2023-05-10T09:17:49;2.42;;;0.73;;
77432;SDS011;66752;48.576;8.876;2023-05-10T09:20:15;1.58;;;0.60;;
77432;SDS011;66752;48.576;8.876;2023-05-10T09:22:42;1.05;;;0.50;;
77432;SDS011;66752;48.576;8.876;2023-05-10T09:27:34;1.67;;;0.60;;
77432;SDS011;66752;48.576;8.876;2023-05-10T09:30:00;2.88;;;0.60;;
77432;SDS011;66752;48.576;8.876;2023-05-10T09:32:45;1.45;;;0.70;;
77432;SDS011;66752;48.576;8.876;2023-05-10T09:35:12;2.15;;;0.80;;
77432;SDS011;66752;48.576;8.876;2023-05-10T09:37:39;3.00;;;0.93;;
77432;SDS011;66752;48.576;8.876;2023-05-10T09:40:11;1.48;;;0.55;;
77432;SDS011;66752;48.576;8.876;2023-05-10T09:45:56;2.55;;;0.82;;
77432;SDS011;66752;48.576;8.876;2023-05-10T09:48:23;2.95;;;0.80;;
77432;SDS011;66752;48.576;8.876;2023-05-10T09:50:55;1.50;;;0.50;;
77432;SDS011;66752;48.576;8.876;2023-05-10T09:53:22;4.00;;;0.88;;
77432;SDS011;66752;48.576;8.876;2023-05-10T09:58:39;2.65;;;0.80;;
77432;SDS011;66752;48.576;8.876;2023-05-10T10:01:10;2.55;;;0.90;;
77432;SDS011;66752;48.576;8.876;2023-05-10T10:03:40;3.28;;;0.80;;
77432;SDS011;66752;48.576;8.876;2023-05-10T10:06:07;1.48;;;0.70;;
77432;SDS011;66752;48.576;8.876;2023-05-10T10:08:33;2.22;;;0.80;;
77432;SDS011;66752;48.576;8.876;2023-05-10T10:11:00;4.53;;;0.90;;
77432;SDS011;66752;48.576;8.876;2023-05-10T10:13:26;1.35;;;0.70;;
77432;SDS011;66752;48.576;8.876;2023-05-10T10:18:56;1.23;;;0.55;;
77432;SDS011;66752;48.576;8.876;2023-05-10T10:21:22;2.40;;;0.88;;
77432;SDS011;66752;48.576;8.876;2023-05-10T10:23:49;4.07;;;1.00;;
77432;SDS011;66752;48.576;8.876;2023-05-10T10:26:15;2.78;;;0.95;;
77432;SDS011;66752;48.576;8.876;2023-05-10T10:28:51;4.80;;;1.10;;
77432;SDS011;66752;48.576;8.876;2023-05-10T10:31:23;2.35;;;0.77;;
77432;SDS011;66752;48.576;8.876;2023-05-10T10:36:53;2.05;;;0.80;;
77432;SDS011;66752;48.576;8.876;2023-05-10T10:39:35;3.13;;;0.60;;
77432;SDS011;66752;48.576;8.876;2023-05-10T10:45:11;1.95;;;0.68;;
77432;SDS011;66752;48.576;8.876;2023-05-10T10:47:38;1.83;;;0.73;;
77432;SDS011;66752;48.576;8.876;2023-05-10T10:50:05;2.72;;;0.70;;
77432;SDS011;66752;48.576;8.876;2023-05-10T10:52:32;2.17;;;0.80;;
77432;SDS011;66752;48.576;8.876;2023-05-10T10:55:18;1.38;;;0.65;;
77432;SDS011;66752;48.576;8.876;2023-05-10T10:57:52;2.55;;;0.80;;
77432;SDS011;66752;48.576;8.876;2023-05-10T11:10:37;1.55;;;0.60;;
77432;SDS011;66752;48.576;8.876;2023-05-10T11:13:07;3.88;;;1.00;;
77432;SDS011;66752;48.576;8.876;2023-05-10T11:18:37;2.63;;;0.80;;
77432;SDS011;66752;48.576;8.876;2023-05-10T11:21:03;1.95;;;0.70;;
77432;SDS011;66752;48.576;8.876;2023-05-10T11:26:34;4.55;;;1.00;;
77432;SDS011;66752;48.576;8.876;2023-05-10T11:32:03;3.00;;;0.90;;
77432;SDS011;66752;48.576;8.876;2023-05-10T11:34:33;3.90;;;0.90;;
77432;SDS011;66752;48.576;8.876;2023-05-10T11:36:59;5.07;;;1.05;;
77432;SDS011;66752;48.576;8.876;2023-05-10T11:39:28;3.92;;;0.95;;
77432;SDS011;66752;48.576;8.876;2023-05-10T11:41:55;2.25;;;0.93;;
77432;SDS011;66752;48.576;8.876;2023-05-10T11:44:21;3.08;;;1.00;;
77432;SDS011;66752;48.576;8.876;2023-05-10T11:52:41;3.13;;;1.10;;
77432;SDS011;66752;48.576;8.876;2023-05-10T11:55:07;2.75;;;0.82;;
77432;SDS011;66752;48.576;8.876;2023-05-10T11:57:34;3.53;;;0.98;;
77432;SDS011;66752;48.576;8.876;2023-05-10T12:00:03;2.65;;;1.00;;
77432;SDS011;66752;48.576;8.876;2023-05-10T12:02:29;2.72;;;0.90;;
77432;SDS011;66752;48.576;8.876;2023-05-10T12:04:55;5.75;;;1.20;;
77432;SDS011;66752;48.576;8.876;2023-05-10T12:07:21;3.20;;;0.80;;
77432;SDS011;66752;48.576;8.876;2023-05-10T12:12:36;2.28;;;0.80;;
77432;SDS011;66752;48.576;8.876;2023-05-10T12:15:02;3.63;;;0.95;;
77432;SDS011;66752;48.576;8.876;2023-05-10T12:20:21;3.58;;;0.90;;
77432;SDS011;66752;48.576;8.876;2023-05-10T12:28:36;5.03;;;1.10;;
77432;SDS011;66752;48.576;8.876;2023-05-10T12:31:02;3.50;;;0.93;;
77432;SDS011;66752;48.576;8.876;2023-05-10T12:33:35;3.60;;;1.08;;
77432;SDS011;66752;48.576;8.876;2023-05-10T12:36:03;3.38;;;1.10;;
77432;SDS011;66752;48.576;8.876;2023-05-10T12:41:33;2.15;;;1.00;;
77432;SDS011;66752;48.576;8.876;2023-05-10T12:43:59;3.35;;;1.13;;
77432;SDS011;66752;48.576;8.876;2023-05-10T12:46:25;6.65;;;1.10;;
77432;SDS011;66752;48.576;8.876;2023-05-10T12:48:52;3.50;;;1.10;;
77432;SDS011;66752;48.576;8.876;2023-05-10T12:51:19;3.33;;;1.00;;
77432;SDS011;66752;48.576;8.876;2023-05-10T12:53:47;4.13;;;1.25;;
77432;SDS011;66752;48.576;8.876;2023-05-10T12:56:13;2.90;;;0.90;;
77432;SDS011;66752;48.576;8.876;2023-05-10T13:02:01;2.50;;;0.93;;
77432;SDS011;66752;48.576;8.876;2023-05-10T13:04:27;5.57;;;1.20;;
77432;SDS011;66752;48.576;8.876;2023-05-10T13:06:53;4.43;;;1.08;;
77432;SDS011;66752;48.576;8.876;2023-05-10T13:09:23;4.45;;;1.33;;
77432;SDS011;66752;48.576;8.876;2023-05-10T13:15:00;4.05;;;1.00;;
77432;SDS011;66752;48.576;8.876;2023-05-10T13:17:26;2.70;;;0.98;;
77432;SDS011;66752;48.576;8.876;2023-05-10T13:19:52;5.30;;;0.80;;
77432;SDS011;66752;48.576;8.876;2023-05-10T13:22:18;5.30;;;1.60;;
77432;SDS011;66752;48.576;8.876;2023-05-10T13:24:44;3.53;;;1.00;;
77432;SDS011;66752;48.576;8.876;2023-05-10T13:27:10;3.63;;;1.10;;
77432;SDS011;66752;48.576;8.876;2023-05-10T13:32:39;2.45;;;0.95;;
77432;SDS011;66752;48.576;8.876;2023-05-10T13:35:05;2.42;;;1.10;;
77432;SDS011;66752;48.576;8.876;2023-05-10T13:37:31;4.07;;;1.17;;
77432;SDS011;66752;48.576;8.876;2023-05-10T13:40:00;2.88;;;1.05;;
77432;SDS011;66752;48.576;8.876;2023-05-10T13:42:26;3.95;;;1.02;;
77432;SDS011;66752;48.576;8.876;2023-05-10T13:44:53;4.95;;;0.98;;
77432;SDS011;66752;48.576;8.876;2023-05-10T13:47:19;3.10;;;0.95;;
77432;SDS011;66752;48.576;8.876;2023-05-10T13:49:46;3.53;;;0.88;;
77432;SDS011;66752;48.576;8.876;2023-05-10T13:52:12;3.65;;;0.85;;
77432;SDS011;66752;48.576;8.876;2023-05-10T13:54:38;3.20;;;0.90;;
77432;SDS011;66752;48.576;8.876;2023-05-10T13:57:04;3.53;;;1.10;;
77432;SDS011;66752;48.576;8.876;2023-05-10T13:59:31;3.25;;;1.05;;
77432;SDS011;66752;48.576;8.876;2023-05-10T14:01:58;4.00;;;0.90;;
77432;SDS011;66752;48.576;8.876;2023-05-10T14:04:24;3.63;;;0.70;;
77432;SDS011;66752;48.576;8.876;2023-05-10T14:06:50;3.28;;;0.82;;
77432;SDS011;66752;48.576;8.876;2023-05-10T14:09:17;3.88;;;1.08;;
77432;SDS011;66752;48.576;8.876;2023-05-10T14:11:43;3.33;;;1.23;;
77432;SDS011;66752;48.576;8.876;2023-05-10T14:14:10;3.05;;;1.10;;
77432;SDS011;66752;48.576;8.876;2023-05-10T14:16:36;4.75;;;1.00;;
77432;SDS011;66752;48.576;8.876;2023-05-10T14:19:02;6.57;;;1.10;;
77432;SDS011;66752;48.576;8.876;2023-05-10T14:21:28;2.28;;;0.85;;
77432;SDS011;66752;48.576;8.876;2023-05-10T14:23:57;4.22;;;0.90;;
77432;SDS011;66752;48.576;8.876;2023-05-10T14:26:23;3.10;;;1.10;;
77432;SDS011;66752;48.576;8.876;2023-05-10T14:28:49;2.95;;;0.90;;
77432;SDS011;66752;48.576;8.876;2023-05-10T14:31:15;2.55;;;0.80;;
77432;SDS011;66752;48.576;8.876;2023-05-10T14:36:07;2.05;;;0.73;;
77432;SDS011;66752;48.576;8.876;2023-05-10T14:38:34;3.90;;;0.85;;
77432;SDS011;66752;48.576;8.876;2023-05-10T14:41:00;2.17;;;0.70;;
77432;SDS011;66752;48.576;8.876;2023-05-10T14:43:26;1.88;;;0.60;;
77432;SDS011;66752;48.576;8.876;2023-05-10T14:45:52;2.70;;;0.93;;
77432;SDS011;66752;48.576;8.876;2023-05-10T14:48:19;2.72;;;0.90;;
77432;SDS011;66752;48.576;8.876;2023-05-10T14:50:46;2.67;;;0.80;;
77432;SDS011;66752;48.576;8.876;2023-05-10T14:53:12;2.42;;;0.80;;
77432;SDS011;66752;48.576;8.876;2023-05-10T14:55:38;3.67;;;0.80;;
77432;SDS011;66752;48.576;8.876;2023-05-10T14:58:04;3.55;;;0.88;;
77432;SDS011;66752;48.576;8.876;2023-05-10T15:00:30;1.65;;;0.70;;
77432;SDS011;66752;48.576;8.876;2023-05-10T15:02:56;2.15;;;0.90;;
77432;SDS011;66752;48.576;8.876;2023-05-10T15:05:22;4.13;;;1.00;;
77432;SDS011;66752;48.576;8.876;2023-05-10T15:07:48;4.32;;;1.00;;
77432;SDS011;66752;48.576;8.876;2023-05-10T15:10:14;3.00;;;1.00;;
77432;SDS011;66752;48.576;8.876;2023-05-10T15:12:40;4.25;;;0.80;;
77432;SDS011;66752;48.576;8.876;2023-05-10T15:15:06;2.20;;;0.85;;
77432;SDS011;66752;48.576;8.876;2023-05-10T15:17:33;4.30;;;0.95;;
77432;SDS011;66752;48.576;8.876;2023-05-10T15:19:59;2.00;;;0.70;;
77432;SDS011;66752;48.576;8.876;2023-05-10T15:22:25;3.47;;;1.00;;
77432;SDS011;66752;48.576;8.876;2023-05-10T15:24:53;2.15;;;0.90;;
77432;SDS011;66752;48.576;8.876;2023-05-10T15:27:19;2.65;;;0.80;;
77432;SDS011;66752;48.576;8.876;2023-05-10T15:29:44;2.88;;;0.98;;
77432;SDS011;66752;48.576;8.876;2023-05-10T15:32:10;3.22;;;0.88;;
77432;SDS011;66752;48.576;8.876;2023-05-10T15:34:36;3.65;;;1.05;;
77432;SDS011;66752;48.576;8.876;2023-05-10T15:37:02;2.05;;;0.80;;
77432;SDS011;66752;48.576;8.876;2023-05-10T15:39:28;1.98;;;0.70;;
77432;SDS011;66752;48.576;8.876;2023-05-10T15:41:54;2.83;;;0.90;;
77432;SDS011;66752;48.576;8.876;2023-05-10T15:44:20;3.45;;;0.88;;
77432;SDS011;66752;48.576;8.876;2023-05-10T15:46:46;2.13;;;0.75;;
77432;SDS011;66752;48.576;8.876;2023-05-10T15:49:12;2.67;;;0.80;;
77432;SDS011;66752;48.576;8.876;2023-05-10T15:51:39;3.58;;;0.65;;
77432;SDS011;66752;48.576;8.876;2023-05-10T15:54:05;3.42;;;0.75;;
77432;SDS011;66752;48.576;8.876;2023-05-10T15:56:31;2.30;;;0.85;;
77432;SDS011;66752;48.576;8.876;2023-05-10T15:58:58;3.25;;;0.95;;
77432;SDS011;66752;48.576;8.876;2023-05-10T16:01:24;2.80;;;1.00;;
77432;SDS011;66752;48.576;8.876;2023-05-10T16:03:50;2.90;;;1.17;;
77432;SDS011;66752;48.576;8.876;2023-05-10T16:06:16;3.30;;;1.10;;
77432;SDS011;66752;48.576;8.876;2023-05-10T16:08:42;2.80;;;1.00;;
77432;SDS011;66752;48.576;8.876;2023-05-10T16:11:08;8.50;;;1.40;;
77432;SDS011;66752;48.576;8.876;2023-05-10T16:13:34;3.10;;;1.00;;
77432;SDS011;66752;48.576;8.876;2023-05-10T16:16:00;3.47;;;1.10;;
77432;SDS011;66752;48.576;8.876;2023-05-10T16:18:26;2.55;;;1.10;;
77432;SDS011;66752;48.576;8.876;2023-05-10T16:20:52;2.88;;;0.80;;
77432;SDS011;66752;48.576;8.876;2023-05-10T16:23:18;4.80;;;1.17;;
77432;SDS011;66752;48.576;8.876;2023-05-10T16:25:44;4.68;;;1.30;;
77432;SDS011;66752;48.576;8.876;2023-05-10T16:28:10;3.80;;;0.90;;
77432;SDS011;66752;48.576;8.876;2023-05-10T16:30:36;2.78;;;1.00;;
77432;SDS011;66752;48.576;8.876;2023-05-10T16:33:02;3.85;;;0.90;;
77432;SDS011;66752;48.576;8.876;2023-05-10T16:35:28;2.67;;;0.90;;
77432;SDS011;66752;48.576;8.876;2023-05-10T16:37:54;3.17;;;1.17;;
77432;SDS011;66752;48.576;8.876;2023-05-10T16:40:20;2.47;;;0.98;;
77432;SDS011;66752;48.576;8.876;2023-05-10T16:42:47;2.15;;;0.75;;
77432;SDS011;66752;48.576;8.876;2023-05-10T16:45:13;1.80;;;0.80;;
77432;SDS011;66752;48.576;8.876;2023-05-10T16:47:40;3.40;;;1.20;;
77432;SDS011;66752;48.576;8.876;2023-05-10T16:50:07;4.80;;;3.00;;
77432;SDS011;66752;48.576;8.876;2023-05-10T16:52:33;5.85;;;3.80;;
77432;SDS011;66752;48.576;8.876;2023-05-10T16:55:00;8.02;;;5.65;;
77432;SDS011;66752;48.576;8.876;2023-05-10T16:57:26;4.30;;;2.60;;
77432;SDS011;66752;48.576;8.876;2023-05-10T16:59:52;2.80;;;1.25;;
77432;SDS011;66752;48.576;8.876;2023-05-10T17:02:18;2.85;;;1.05;;
77432;SDS011;66752;48.576;8.876;2023-05-10T17:04:45;3.85;;;1.00;;
77432;SDS011;66752;48.576;8.876;2023-05-10T17:07:11;2.85;;;1.20;;
77432;SDS011;66752;48.576;8.876;2023-05-10T17:09:37;3.35;;;1.35;;
77432;SDS011;66752;48.576;8.876;2023-05-10T17:14:30;3.60;;;1.15;;
77432;SDS011;66752;48.576;8.876;2023-05-10T17:16:56;5.15;;;1.20;;
77432;SDS011;66752;48.576;8.876;2023-05-10T17:19:22;5.68;;;1.73;;
77432;SDS011;66752;48.576;8.876;2023-05-10T17:21:48;3.50;;;1.10;;
77432;SDS011;66752;48.576;8.876;2023-05-10T17:24:13;3.80;;;1.40;;
77432;SDS011;66752;48.576;8.876;2023-05-10T17:26:40;4.22;;;1.35;;
77432;SDS011;66752;48.576;8.876;2023-05-10T17:29:06;4.85;;;1.33;;
77432;SDS011;66752;48.576;8.876;2023-05-10T17:31:32;4.22;;;1.23;;
77432;SDS011;66752;48.576;8.876;2023-05-10T17:33:58;4.00;;;1.10;;
77432;SDS011;66752;48.576;8.876;2023-05-10T17:36:24;3.53;;;1.25;;
77432;SDS011;66752;48.576;8.876;2023-05-10T17:38:50;4.28;;;1.35;;
77432;SDS011;66752;48.576;8.876;2023-05-10T17:41:17;3.45;;;1.25;;
77432;SDS011;66752;48.576;8.876;2023-05-10T17:43:43;3.92;;;1.10;;
77432;SDS011;66752;48.576;8.876;2023-05-10T17:46:09;3.17;;;1.08;;
77432;SDS011;66752;48.576;8.876;2023-05-10T17:48:36;3.55;;;1.45;;
77432;SDS011;66752;48.576;8.876;2023-05-10T17:51:02;4.78;;;2.25;;
77432;SDS011;66752;48.576;8.876;2023-05-10T17:53:28;12.55;;;8.02;;
77432;SDS011;66752;48.576;8.876;2023-05-10T17:55:54;8.88;;;4.85;;
77432;SDS011;66752;48.576;8.876;2023-05-10T17:58:25;4.63;;;2.25;;
77432;SDS011;66752;48.576;8.876;2023-05-10T18:00:51;5.43;;;1.67;;
77432;SDS011;66752;48.576;8.876;2023-05-10T18:03:17;4.75;;;1.30;;
77432;SDS011;66752;48.576;8.876;2023-05-10T18:05:43;2.47;;;1.08;;
77432;SDS011;66752;48.576;8.876;2023-05-10T18:08:10;3.83;;;1.30;;
77432;SDS011;66752;48.576;8.876;2023-05-10T18:10:36;5.25;;;1.55;;
77432;SDS011;66752;48.576;8.876;2023-05-10T18:13:02;3.97;;;2.00;;
77432;SDS011;66752;48.576;8.876;2023-05-10T18:17:55;2.92;;;1.10;;
77432;SDS011;66752;48.576;8.876;2023-05-10T18:20:21;4.85;;;1.45;;
77432;SDS011;66752;48.576;8.876;2023-05-10T18:22:47;3.50;;;1.70;;
77432;SDS011;66752;48.576;8.876;2023-05-10T18:25:13;3.90;;;2.22;;
77432;SDS011;66752;48.576;8.876;2023-05-10T18:27:39;3.80;;;2.63;;
77432;SDS011;66752;48.576;8.876;2023-05-10T18:30:05;7.30;;;5.47;;
77432;SDS011;66752;48.576;8.876;2023-05-10T18:32:33;6.00;;;5.30;;
77432;SDS011;66752;48.576;8.876;2023-05-10T18:34:59;6.43;;;5.60;;
77432;SDS011;66752;48.576;8.876;2023-05-10T18:37:25;6.50;;;5.43;;
77432;SDS011;66752;48.576;8.876;2023-05-10T18:39:51;4.55;;;3.03;;
77432;SDS011;66752;48.576;8.876;2023-05-10T18:42:18;4.47;;;1.10;;
77432;SDS011;66752;48.576;8.876;2023-05-10T18:44:44;3.72;;;1.27;;
77432;SDS011;66752;48.576;8.876;2023-05-10T18:47:10;3.63;;;1.30;;
77432;SDS011;66752;48.576;8.876;2023-05-10T18:49:36;3.50;;;0.90;;
77432;SDS011;66752;48.576;8.876;2023-05-10T18:52:02;2.50;;;0.95;;